Time;durP1;ratioP1;P1;durP2;ratioP2;P2;SDS_P1;SDS_P2;PMS_P1;PMS_P2;Temp;Humidity;BMP_temperature;BMP_pressure;BME280_temperature;BME280_humidity;BME280_pressure;Samples;Min_cycle;Max_cycle;Signal;HPM_P1;HPM_P2
2021/07/23 00:01:31;;;;;;;5.88;5.00;;;18.30;99.90;;;;;;5075979;28;20173;-81
2021/07/23 00:03:57;;;;;;;8.75;5.30;;;18.10;99.90;;;;;;5052113;28;20170;-81
2021/07/23 00:06:24;;;;;;;14.98;5.15;;;18.00;99.90;;;;;;5047632;28;20632;-87
2021/07/23 00:08:49;;;;;;;6.90;5.30;;;17.80;99.90;;;;;;5076176;28;20216;-82
2021/07/23 00:11:15;;;;;;;6.43;5.57;;;17.70;99.90;;;;;;5075918;28;20567;-82
2021/07/23 00:13:40;;;;;;;7.82;4.93;;;17.70;99.90;;;;;;5044787;28;20175;-81
2021/07/23 00:16:06;;;;;;;5.85;5.32;;;17.70;99.90;;;;;;5058249;28;20271;-81
2021/07/23 00:18:32;;;;;;;7.60;5.40;;;17.60;99.90;;;;;;5075837;28;20269;-81
2021/07/23 00:20:57;;;;;;;7.32;5.22;;;17.50;99.90;;;;;;5060716;28;20174;-81
2021/07/23 00:23:23;;;;;;;5.50;4.85;;;17.50;99.90;;;;;;5061296;28;20239;-82
2021/07/23 00:25:49;;;;;;;9.35;5.32;;;17.40;99.90;;;;;;5060916;28;20621;-81
2021/07/23 00:28:15;;;;;;;6.43;5.82;;;17.30;99.90;;;;;;5057611;28;20167;-81
2021/07/23 00:30:41;;;;;;;7.35;5.78;;;17.20;99.90;;;;;;5075545;28;20540;-82
2021/07/23 00:33:06;;;;;;;5.82;5.38;;;17.20;99.90;;;;;;5057567;28;20171;-81
2021/07/23 00:35:32;;;;;;;5.93;5.20;;;17.30;99.90;;;;;;5058410;28;20190;-80
2021/07/23 00:37:58;;;;;;;7.30;6.00;;;17.30;99.90;;;;;;5058174;28;20170;-81
2021/07/23 00:40:24;;;;;;;7.72;5.50;;;17.30;99.90;;;;;;5077528;28;20194;-81
2021/07/23 00:42:50;;;;;;;6.05;5.50;;;17.30;99.90;;;;;;5095411;28;20223;-83
2021/07/23 00:45:18;;;;;;;10.45;5.47;;;17.30;99.90;;;;;;5049086;28;20179;-82
2021/07/23 00:47:46;;;;;;;8.57;6.38;;;17.40;99.90;;;;;;5059087;28;20197;-80
2021/07/23 00:50:12;;;;;;;6.57;5.90;;;17.30;99.90;;;;;;5075202;28;20173;-81
2021/07/23 00:52:38;;;;;;;6.55;5.95;;;17.20;99.90;;;;;;5057028;28;20211;-80
2021/07/23 00:55:05;;;;;;;6.72;5.82;;;17.10;99.90;;;;;;5069898;28;20493;-82
2021/07/23 00:57:32;;;;;;;6.93;6.13;;;17.10;99.90;;;;;;5079845;28;20239;-81
2021/07/23 00:59:58;;;;;;;7.57;5.70;;;17.10;99.90;;;;;;5040568;28;20593;-80
2021/07/23 01:02:24;;;;;;;9.30;5.75;;;17.10;99.90;;;;;;5057010;28;20181;-82
2021/07/23 01:04:50;;;;;;;11.73;6.10;;;17.10;99.90;;;;;;5056849;28;20520;-81
2021/07/23 01:07:16;;;;;;;6.90;6.20;;;17.10;99.90;;;;;;5085209;28;20170;-83
2021/07/23 01:09:42;;;;;;;8.18;6.00;;;17.10;99.90;;;;;;5092671;28;20197;-82
2021/07/23 01:12:12;;;;;;;8.32;6.20;;;17.20;99.90;;;;;;5026646;28;20290;-81
2021/07/23 01:14:39;;;;;;;6.03;5.53;;;17.10;99.90;;;;;;5060000;28;20203;-81
2021/07/23 01:17:04;;;;;;;8.13;6.25;;;17.10;99.90;;;;;;5094578;28;20166;-82
2021/07/23 01:19:55;;;;;;;6.90;6.00;;;17.10;99.90;;;;;;5076816;28;20170;-81
2021/07/23 01:22:25;;;;;;;7.13;5.78;;;17.10;99.90;;;;;;5076321;28;20188;-81
2021/07/23 01:24:51;;;;;;;10.90;6.07;;;17.10;99.90;;;;;;5075627;28;20173;-80
2021/07/23 01:27:17;;;;;;;8.77;5.78;;;16.90;99.90;;;;;;5056307;28;20171;-82
2021/07/23 01:29:42;;;;;;;6.60;6.10;;;16.80;99.90;;;;;;5039911;28;20175;-82
2021/07/23 01:32:08;;;;;;;8.63;6.43;;;16.80;99.90;;;;;;5039778;28;20199;-82
2021/07/23 01:34:34;;;;;;;11.73;6.65;;;16.70;99.90;;;;;;5041293;28;20233;-80
2021/07/23 01:36:59;;;;;;;9.32;6.75;;;16.70;99.90;;;;;;5060572;28;20570;-81
2021/07/23 01:39:26;;;;;;;7.70;6.78;;;16.80;99.90;;;;;;5059500;28;20170;-82
2021/07/23 01:41:52;;;;;;;8.80;6.57;;;16.90;99.90;;;;;;5059718;28;20173;-82
2021/07/23 01:44:17;;;;;;;10.65;7.03;;;16.90;99.90;;;;;;5067841;28;20636;-82
2021/07/23 01:46:43;;;;;;;7.63;6.93;;;16.90;99.90;;;;;;5076753;28;20174;-81
2021/07/23 01:49:09;;;;;;;9.30;6.80;;;16.90;99.90;;;;;;5053277;28;20609;-82
2021/07/23 01:51:35;;;;;;;11.88;6.60;;;16.90;99.90;;;;;;5055928;28;20252;-81
2021/07/23 01:54:00;;;;;;;9.68;6.50;;;16.90;99.90;;;;;;5056170;28;20401;-81
2021/07/23 01:56:26;;;;;;;10.07;7.05;;;16.90;99.90;;;;;;5040389;28;20178;-82
2021/07/23 01:58:54;;;;;;;9.90;6.85;;;16.90;99.90;;;;;;5074497;28;20615;-81
2021/07/23 02:01:19;;;;;;;8.50;6.78;;;17.00;99.90;;;;;;5090488;28;20170;-81
2021/07/23 02:03:45;;;;;;;8.27;7.40;;;17.00;99.90;;;;;;5061807;28;20178;-82
2021/07/23 02:06:11;;;;;;;11.48;7.47;;;17.00;99.90;;;;;;5056645;28;20193;-82
2021/07/23 02:08:36;;;;;;;7.18;6.45;;;17.00;99.90;;;;;;5056114;28;20286;-82
2021/07/23 02:11:02;;;;;;;8.88;6.60;;;16.90;99.90;;;;;;5073990;28;20565;-81
2021/07/23 02:13:28;;;;;;;7.18;6.50;;;16.90;99.90;;;;;;5057265;28;20178;-82
2021/07/23 02:15:53;;;;;;;9.63;7.22;;;16.90;99.90;;;;;;5093653;28;20627;-82
2021/07/23 02:18:19;;;;;;;17.05;7.47;;;16.80;99.90;;;;;;5028770;28;20178;-82
2021/07/23 02:20:45;;;;;;;8.52;6.82;;;16.80;99.90;;;;;;5090939;28;20612;-82
2021/07/23 02:23:10;;;;;;;9.85;6.97;;;16.80;99.90;;;;;;5093574;28;20177;-82
2021/07/23 02:25:36;;;;;;;9.90;8.90;;;16.90;99.90;;;;;;5075798;28;20170;-82
2021/07/23 02:28:03;;;;;;;8.20;7.50;;;16.90;99.90;;;;;;5066215;28;20171;-80
2021/07/23 02:30:29;;;;;;;12.55;7.55;;;16.90;99.90;;;;;;5040764;28;20170;-82
2021/07/23 02:32:55;;;;;;;9.70;7.75;;;16.90;99.90;;;;;;5055745;28;20274;-81
2021/07/23 02:35:20;;;;;;;11.38;7.80;;;16.90;99.90;;;;;;5055408;28;20576;-83
2021/07/23 02:37:46;;;;;;;8.82;8.02;;;16.80;99.90;;;;;;5058188;28;20195;-81
2021/07/23 02:40:12;;;;;;;9.32;7.30;;;16.80;99.90;;;;;;5054173;28;20174;-80
2021/07/23 02:42:38;;;;;;;9.27;7.75;;;16.80;99.90;;;;;;5039070;28;20201;-81
2021/07/23 02:45:04;;;;;;;11.80;7.93;;;16.70;99.90;;;;;;5053309;28;20178;-82
2021/07/23 02:47:30;;;;;;;13.90;7.47;;;16.70;99.90;;;;;;5087457;28;20253;-83
2021/07/23 02:49:56;;;;;;;11.18;7.35;;;16.70;99.90;;;;;;5065150;28;20193;-82
2021/07/23 02:52:21;;;;;;;8.30;7.53;;;16.70;99.90;;;;;;5075300;28;20582;-80
2021/07/23 02:54:47;;;;;;;11.63;8.15;;;16.70;99.90;;;;;;5075486;28;20181;-81
2021/07/23 02:57:12;;;;;;;8.35;7.45;;;16.70;99.90;;;;;;5040815;28;20221;-82
2021/07/23 02:59:38;;;;;;;9.07;8.18;;;16.60;99.90;;;;;;5057215;28;20182;-81
2021/07/23 03:02:04;;;;;;;8.63;7.85;;;16.60;99.90;;;;;;5093299;28;20166;-82
2021/07/23 03:04:29;;;;;;;8.98;8.18;;;16.60;99.90;;;;;;5075253;28;20494;-81
2021/07/23 03:06:55;;;;;;;8.05;7.35;;;16.60;99.90;;;;;;5057030;28;20178;-81
2021/07/23 03:09:21;;;;;;;11.23;8.57;;;16.60;99.90;;;;;;5092851;28;20170;-81
2021/07/23 03:11:46;;;;;;;9.85;8.65;;;16.50;99.90;;;;;;5051977;28;20187;-80
2021/07/23 03:14:12;;;;;;;16.27;8.52;;;16.50;99.90;;;;;;5067709;28;20178;-81
2021/07/23 03:16:38;;;;;;;9.95;8.45;;;16.40;99.90;;;;;;5078997;28;20523;-82
2021/07/23 03:19:03;;;;;;;11.45;8.25;;;16.40;99.90;;;;;;5075624;28;20170;-81
2021/07/23 03:21:29;;;;;;;9.82;8.55;;;16.50;99.90;;;;;;5039687;28;20171;-81
2021/07/23 03:23:55;;;;;;;17.80;9.35;;;16.40;99.90;;;;;;5025730;28;20179;-81
2021/07/23 03:26:21;;;;;;;11.98;9.38;;;16.40;99.90;;;;;;5025820;28;20178;-81
2021/07/23 03:28:47;;;;;;;11.02;9.38;;;16.50;99.90;;;;;;5052789;28;20163;-81
2021/07/23 03:31:13;;;;;;;10.77;9.65;;;16.40;99.90;;;;;;5076605;28;20251;-81
2021/07/23 03:33:39;;;;;;;10.27;9.25;;;16.20;99.90;;;;;;5060835;28;20170;-81
2021/07/23 03:36:05;;;;;;;14.95;10.10;;;15.90;99.90;;;;;;5058763;28;20521;-81
2021/07/23 03:38:31;;;;;;;10.88;9.82;;;15.90;99.90;;;;;;5059050;28;20167;-81
2021/07/23 03:40:56;;;;;;;10.65;9.55;;;16.00;99.90;;;;;;5058702;28;20210;-82
2021/07/23 03:43:22;;;;;;;11.63;9.52;;;15.90;99.90;;;;;;5058355;28;20171;-82
2021/07/23 03:45:47;;;;;;;10.13;9.25;;;15.90;99.90;;;;;;5058601;28;20171;-82
2021/07/23 03:48:13;;;;;;;12.02;9.63;;;16.00;99.90;;;;;;5050441;28;20170;-81
2021/07/23 03:50:39;;;;;;;12.25;9.73;;;16.00;99.90;;;;;;5078918;28;20205;-82
2021/07/23 03:53:05;;;;;;;10.48;9.43;;;16.10;99.90;;;;;;5060604;28;20170;-82
2021/07/23 03:55:30;;;;;;;12.35;9.38;;;16.00;99.90;;;;;;5061647;28;20170;-82
2021/07/23 03:57:56;;;;;;;10.02;9.13;;;16.10;99.90;;;;;;5042429;28;20192;-81
2021/07/23 04:00:23;;;;;;;11.25;10.02;;;16.10;99.90;;;;;;5058189;28;20179;-82
2021/07/23 04:02:48;;;;;;;13.48;9.77;;;16.00;99.90;;;;;;5045742;28;20174;-81
2021/07/23 04:05:14;;;;;;;13.10;10.25;;;15.90;99.90;;;;;;5058235;28;20642;-82
2021/07/23 04:07:40;;;;;;;11.10;9.68;;;16.00;99.90;;;;;;5074534;28;20175;-82
2021/07/23 04:10:05;;;;;;;20.55;9.88;;;16.00;99.90;;;;;;5076155;28;20177;-82
2021/07/23 04:12:31;;;;;;;11.52;10.23;;;16.10;99.90;;;;;;5076871;28;20593;-82
2021/07/23 04:14:57;;;;;;;11.68;9.45;;;16.10;99.90;;;;;;5095064;28;20182;-82
2021/07/23 04:17:22;;;;;;;15.25;10.35;;;16.10;99.90;;;;;;5061449;28;20182;-82
2021/07/23 04:19:48;;;;;;;11.77;10.57;;;16.10;99.90;;;;;;5057585;28;20208;-81
2021/07/23 04:22:14;;;;;;;12.82;10.88;;;16.10;99.90;;;;;;5057536;28;20171;-82
2021/07/23 04:24:39;;;;;;;12.57;9.77;;;16.20;99.90;;;;;;5052493;28;20181;-81
2021/07/23 04:27:05;;;;;;;13.13;10.30;;;16.30;99.90;;;;;;5044507;28;20170;-82
2021/07/23 04:29:31;;;;;;;13.43;10.48;;;16.40;99.90;;;;;;5084395;28;20261;-81
2021/07/23 04:31:56;;;;;;;13.27;10.25;;;16.30;99.90;;;;;;5032184;28;20648;-81
2021/07/23 04:34:22;;;;;;;12.05;10.05;;;16.30;99.90;;;;;;5045495;28;20170;-82
2021/07/23 04:36:48;;;;;;;11.00;10.00;;;16.10;99.90;;;;;;5058655;28;20220;-82
2021/07/23 04:39:13;;;;;;;10.50;9.50;;;16.00;99.90;;;;;;5083458;28;20559;-81
2021/07/23 04:41:40;;;;;;;18.05;10.77;;;15.80;99.90;;;;;;5071306;28;20177;-81
2021/07/23 04:44:06;;;;;;;15.32;10.27;;;15.90;99.90;;;;;;5048789;28;20203;-81
2021/07/23 04:46:32;;;;;;;11.80;10.57;;;15.90;99.90;;;;;;5090916;28;20224;-82
2021/07/23 04:48:58;;;;;;;18.08;11.45;;;15.80;99.90;;;;;;5040187;28;20171;-81
2021/07/23 04:51:23;;;;;;;14.80;9.73;;;16.00;99.90;;;;;;5029950;28;20197;-82
2021/07/23 04:53:50;;;;;;;16.48;10.43;;;16.50;99.90;;;;;;5077170;28;20177;-82
2021/07/23 04:56:15;;;;;;;11.93;9.68;;;17.20;99.90;;;;;;5068529;28;20228;-82
2021/07/23 04:58:41;;;;;;;10.35;9.32;;;17.90;99.90;;;;;;5075451;28;20567;-82
2021/07/23 05:01:07;;;;;;;11.40;9.88;;;18.70;99.90;;;;;;5094959;28;20174;-82
2021/07/23 05:03:37;;;;;;;11.82;8.75;;;19.50;99.90;;;;;;5060498;28;20174;-82
2021/07/23 05:06:07;;;;;;;13.10;8.23;;;20.30;99.90;;;;;;5058699;28;20508;-81
2021/07/23 05:08:37;;;;;;;12.75;7.53;;;20.40;99.90;;;;;;5059931;28;20228;-81
2021/07/23 05:11:13;;;;;;;11.38;7.60;;;20.50;99.90;;;;;;5059202;28;20202;-82
2021/07/23 05:13:39;;;;;;;12.25;7.60;;;21.10;99.90;;;;;;5077056;28;20166;-83
2021/07/23 05:16:05;;;;;;;9.50;8.38;;;21.60;99.90;;;;;;5076890;28;20251;-81
2021/07/23 05:18:33;;;;;;;9.20;8.15;;;21.80;99.90;;;;;;5043941;28;20177;-81
2021/07/23 05:20:58;;;;;;;11.65;7.78;;;22.50;99.90;;;;;;5056812;28;20261;-82
2021/07/23 05:23:24;;;;;;;14.00;7.63;;;22.90;99.90;;;;;;5056696;28;20273;-82
2021/07/23 05:25:50;;;;;;;9.30;7.78;;;23.40;99.90;;;;;;5074497;28;20162;-82
2021/07/23 05:28:15;;;;;;;8.15;7.32;;;23.20;99.90;;;;;;5057533;28;20507;-82
2021/07/23 05:30:41;;;;;;;9.93;6.63;;;23.00;99.90;;;;;;5083739;28;20166;-82
2021/07/23 05:33:07;;;;;;;8.05;7.25;;;23.10;99.90;;;;;;5075565;28;20177;-81
2021/07/23 05:35:33;;;;;;;10.85;8.10;;;22.20;99.90;;;;;;5059735;28;20259;-81
2021/07/23 05:37:59;;;;;;;12.52;8.55;;;22.40;99.90;;;;;;5092508;28;20643;-82
2021/07/23 05:40:25;;;;;;;8.68;7.97;;;23.00;99.90;;;;;;5084835;28;20201;-83
2021/07/23 05:42:53;;;;;;;8.85;8.05;;;23.40;99.90;;;;;;5076457;28;20158;-81
2021/07/23 05:45:19;;;;;;;11.38;7.57;;;24.60;99.90;;;;;;5075902;28;20486;-81
2021/07/23 05:47:45;;;;;;;9.05;7.97;;;25.00;99.90;;;;;;5076143;28;20178;-83
2021/07/23 05:50:11;;;;;;;9.15;8.05;;;25.10;99.90;;;;;;5084609;28;20158;-81
2021/07/23 05:52:36;;;;;;;10.85;8.48;;;25.90;99.90;;;;;;5059249;28;20194;-82
2021/07/23 05:55:02;;;;;;;35.47;9.75;;;26.60;99.90;;;;;;5059526;28;20177;-82
2021/07/23 05:57:28;;;;;;;8.95;8.10;;;27.50;99.90;;;;;;5093188;28;20254;-83
2021/07/23 05:59:53;;;;;;;13.60;8.57;;;27.30;99.90;;;;;;5090624;28;20223;-82
2021/07/23 06:02:19;;;;;;;10.45;8.95;;;27.80;99.90;;;;;;5056026;28;20178;-82
2021/07/23 06:04:45;;;;;;;8.10;7.40;;;27.10;99.90;;;;;;5039213;28;20170;-82
2021/07/23 06:07:10;;;;;;;11.95;7.78;;;27.80;99.90;;;;;;5073862;28;20529;-80
2021/07/23 06:09:36;;;;;;;8.95;7.80;;;28.20;99.90;;;;;;5064730;28;20199;-81
2021/07/23 06:12:02;;;;;;;8.80;7.85;;;28.80;99.90;;;;;;5074583;28;20652;-85
2021/07/23 06:14:27;;;;;;;7.68;6.88;;;26.40;99.90;;;;;;5039226;28;20175;-83
2021/07/23 06:16:55;;;;;;;8.98;7.93;;;26.80;99.90;;;;;;5073244;28;20609;-82
2021/07/23 06:19:21;;;;;;;9.18;8.00;;;28.40;99.90;;;;;;5055704;28;20609;-81
2021/07/23 06:21:46;;;;;;;11.82;7.88;;;29.20;99.90;;;;;;5023977;28;20171;-82
2021/07/23 06:24:12;;;;;;;12.10;7.70;;;29.60;99.90;;;;;;5022893;28;20384;-82
2021/07/23 06:26:38;;;;;;;9.25;8.07;;;30.20;99.90;;;;;;5055565;28;20272;-82
2021/07/23 06:29:04;;;;;;;15.95;7.78;;;29.50;99.90;;;;;;5038899;28;20163;-82
2021/07/23 06:31:29;;;;;;;9.45;7.93;;;30.00;99.90;;;;;;5066461;28;20277;-82
2021/07/23 06:33:55;;;;;;;10.85;8.15;;;31.00;99.90;;;;;;5093893;28;20154;-82
2021/07/23 06:36:21;;;;;;;7.88;7.38;;;31.50;99.90;;;;;;5076264;28;20505;-82
2021/07/23 06:38:47;;;;;;;15.88;8.90;;;30.30;99.90;;;;;;5057474;28;20205;-80
2021/07/23 06:41:12;;;;;;;10.15;9.25;;;29.70;99.90;;;;;;5055262;28;20208;-81
2021/07/23 06:43:38;;;;;;;15.77;10.23;;;30.10;99.90;;;;;;5069641;28;20161;-80
2021/07/23 06:46:04;;;;;;;10.10;9.15;;;30.30;99.90;;;;;;5077927;28;20200;-81
2021/07/23 06:48:30;;;;;;;13.73;10.40;;;31.00;99.90;;;;;;5098310;28;20273;-83
2021/07/23 06:50:56;;;;;;;9.45;8.60;;;30.70;99.90;;;;;;5090102;28;20211;-81
2021/07/23 06:53:22;;;;;;;19.50;10.10;;;30.70;99.90;;;;;;5032873;28;20178;-83
2021/07/23 06:55:47;;;;;;;8.98;8.02;;;31.80;99.90;;;;;;5077428;28;20166;-83
2021/07/23 06:58:13;;;;;;;9.48;8.43;;;33.00;98.80;;;;;;5059152;28;20186;-81
2021/07/23 07:00:39;;;;;;;12.88;8.95;;;31.90;98.40;;;;;;5042865;28;20519;-85
2021/07/23 07:03:08;;;;;;;9.48;8.27;;;31.40;99.90;;;;;;5077245;28;20158;-83
2021/07/23 07:05:34;;;;;;;9.38;8.52;;;31.50;99.30;;;;;;5059005;28;20178;-82
2021/07/23 07:08:00;;;;;;;11.25;8.65;;;32.50;98.20;;;;;;5059292;28;20167;-83
2021/07/23 07:10:26;;;;;;;8.73;8.05;;;33.80;97.60;;;;;;5059136;28;20162;-83
2021/07/23 07:12:59;;;;;;;7.38;6.88;;;34.00;96.70;;;;;;5059311;28;20255;-83
2021/07/23 07:15:26;;;;;;;9.18;7.80;;;34.40;95.30;;;;;;5060153;28;20170;-82
2021/07/23 07:17:58;;;;;;;8.45;7.75;;;34.10;95.20;;;;;;5058944;28;20511;-84
2021/07/23 07:20:24;;;;;;;8.77;7.03;;;34.30;94.00;;;;;;5051500;28;20269;-82
2021/07/23 07:22:52;;;;;;;11.77;6.75;;;34.90;94.40;;;;;;5076792;28;20516;-82
2021/07/23 07:25:17;;;;;;;12.38;7.90;;;34.80;92.90;;;;;;5044382;28;20232;-82
2021/07/23 07:27:43;;;;;;;9.27;7.93;;;34.10;94.50;;;;;;5058840;28;20550;-82
2021/07/23 07:30:09;;;;;;;10.18;7.75;;;33.60;93.20;;;;;;5041781;28;20181;-82
2021/07/23 07:32:35;;;;;;;13.23;8.50;;;34.20;93.60;;;;;;5042122;28;20281;-82
2021/07/23 07:35:00;;;;;;;9.38;8.25;;;32.60;94.30;;;;;;5046616;28;20174;-82
2021/07/23 07:37:26;;;;;;;12.60;8.48;;;30.90;96.20;;;;;;5088428;28;20290;-81
2021/07/23 07:39:52;;;;;;;9.48;8.55;;;31.20;96.30;;;;;;5047671;28;20221;-80
2021/07/23 07:42:17;;;;;;;9.40;8.32;;;32.30;94.60;;;;;;5073274;28;20176;-82
2021/07/23 07:44:46;;;;;;;9.40;7.85;;;31.40;95.40;;;;;;5074528;28;20181;-82
2021/07/23 07:47:11;;;;;;;11.02;8.32;;;31.90;95.60;;;;;;5065483;28;20161;-83
2021/07/23 07:49:37;;;;;;;10.23;8.38;;;30.90;96.10;;;;;;5077134;28;20564;-84
2021/07/23 07:52:03;;;;;;;9.00;8.23;;;31.40;95.80;;;;;;5061837;28;20267;-80
2021/07/23 07:54:28;;;;;;;9.25;7.47;;;31.00;95.40;;;;;;5078420;28;20166;-83
2021/07/23 07:56:57;;;;;;;9.68;8.63;;;32.70;95.80;;;;;;5077666;28;20185;-82
2021/07/23 07:59:23;;;;;;;13.00;7.80;;;32.30;94.80;;;;;;5046579;28;20204;-80
2021/07/23 08:01:49;;;;;;;7.82;7.15;;;33.90;93.60;;;;;;5058230;28;20178;-81
2021/07/23 08:04:14;;;;;;;8.13;7.43;;;35.10;92.70;;;;;;5058521;28;20475;-82
2021/07/23 08:06:42;;;;;;;7.93;7.28;;;34.20;92.60;;;;;;5059929;28;20235;-82
2021/07/23 08:09:13;;;;;;;8.98;8.05;;;35.30;91.70;;;;;;5061266;28;20690;-83
2021/07/23 08:11:38;;;;;;;10.18;7.47;;;36.10;91.30;;;;;;5079015;28;20185;-82
2021/07/23 08:14:05;;;;;;;8.18;7.25;;;35.30;91.30;;;;;;5061301;28;20170;-81
2021/07/23 08:16:31;;;;;;;8.50;7.85;;;34.10;91.20;;;;;;5077293;28;20252;-82
2021/07/23 08:19:00;;;;;;;11.77;6.95;;;33.20;91.70;;;;;;5059006;28;20167;-82
2021/07/23 08:21:26;;;;;;;10.40;7.05;;;32.60;93.40;;;;;;5057735;28;20611;-82
2021/07/23 08:23:51;;;;;;;8.00;6.82;;;32.00;93.90;;;;;;5057561;28;20209;-81
2021/07/23 08:26:17;;;;;;;10.20;7.55;;;33.90;92.80;;;;;;5041182;28;20251;-80
2021/07/23 08:28:44;;;;;;;8.48;6.85;;;34.10;92.30;;;;;;5058028;28;20551;-81
2021/07/23 08:31:10;;;;;;;13.02;7.28;;;35.40;90.70;;;;;;5058939;28;20202;-82
2021/07/23 08:33:36;;;;;;;10.45;6.93;;;33.20;91.30;;;;;;5057873;28;20170;-85
2021/07/23 08:36:02;;;;;;;9.13;6.00;;;34.30;92.10;;;;;;5077627;28;20180;-82
2021/07/23 08:38:27;;;;;;;7.20;5.70;;;34.80;91.20;;;;;;5077301;28;20162;-81
2021/07/23 08:40:53;;;;;;;6.70;6.10;;;32.90;93.30;;;;;;5065647;28;20192;-82
2021/07/23 08:43:19;;;;;;;7.85;6.45;;;34.30;92.40;;;;;;5057418;28;20166;-82
2021/07/23 08:45:44;;;;;;;7.43;6.63;;;33.80;91.30;;;;;;5075000;28;20171;-82
2021/07/23 08:48:10;;;;;;;11.95;5.95;;;34.10;90.90;;;;;;5075218;28;20220;-83
2021/07/23 08:50:37;;;;;;;10.75;6.53;;;35.20;90.20;;;;;;5071173;28;20174;-84
2021/07/23 08:53:09;;;;;;;9.93;5.70;;;36.70;87.70;;;;;;5064344;28;20177;-82
2021/07/23 08:55:35;;;;;;;7.30;5.95;;;35.40;88.70;;;;;;5077129;28;20154;-83
2021/07/23 08:58:01;;;;;;;6.63;6.00;;;35.40;89.30;;;;;;5093235;28;20227;-84
2021/07/23 09:00:27;;;;;;;6.53;5.68;;;34.40;90.20;;;;;;5060549;28;20424;-82
2021/07/23 09:02:58;;;;;;;8.98;6.07;;;33.60;91.90;;;;;;5087029;28;20181;-81
2021/07/23 09:05:34;;;;;;;7.15;6.57;;;33.90;91.20;;;;;;5056735;28;20170;-83
2021/07/23 09:08:11;;;;;;;8.48;6.25;;;32.80;91.30;;;;;;5074206;28;20197;-84
2021/07/23 09:10:37;;;;;;;6.68;5.90;;;32.90;92.30;;;;;;5074917;28;20154;-82
2021/07/23 09:13:05;;;;;;;16.10;5.82;;;35.90;90.60;;;;;;5052276;28;20174;-81
2021/07/23 09:15:42;;;;;;;17.58;5.25;;;36.60;88.50;;;;;;5075159;28;20252;-83
2021/07/23 09:18:31;;;;;;;5.00;4.60;;;36.80;88.10;;;;;;5074351;28;20489;-84
2021/07/23 09:21:04;;;;;;;8.77;5.05;;;37.30;85.50;;;;;;5075023;28;20147;-83
2021/07/23 09:23:31;;;;;;;7.65;4.65;;;38.30;84.70;;;;;;5082493;28;20237;-83
2021/07/23 09:26:16;;;;;;;12.07;5.18;;;38.60;83.10;;;;;;5075924;28;20634;-84
2021/07/23 09:28:47;;;;;;;11.40;5.25;;;37.10;84.20;;;;;;5094850;28;20154;-83
2021/07/23 09:31:24;;;;;;;4.22;3.90;;;35.50;84.70;;;;;;5076542;28;20659;-83
2021/07/23 09:33:54;;;;;;;6.25;3.92;;;35.50;87.60;;;;;;5069451;28;20178;-83
2021/07/23 09:36:20;;;;;;;5.05;4.13;;;37.50;85.00;;;;;;5074409;28;20162;-84
2021/07/23 09:38:47;;;;;;;5.10;3.97;;;37.90;84.10;;;;;;5039693;28;20276;-84
2021/07/23 09:41:13;;;;;;;7.60;4.95;;;40.10;82.30;;;;;;5074282;28;20170;-84
2021/07/23 09:43:40;;;;;;;7.70;4.90;;;40.40;79.30;;;;;;5081623;28;20607;-83
2021/07/23 09:46:18;;;;;;;12.30;4.97;;;39.40;78.80;;;;;;5059490;28;20543;-83
2021/07/23 09:48:44;;;;;;;7.78;4.30;;;37.70;78.30;;;;;;5094357;28;20510;-84
2021/07/23 09:51:11;;;;;;;5.97;4.65;;;36.90;82.80;;;;;;5076071;28;20197;-83
2021/07/23 09:53:36;;;;;;;7.57;4.28;;;35.60;84.80;;;;;;5093410;28;20233;-85
2021/07/23 09:56:06;;;;;;;6.20;4.65;;;35.00;85.50;;;;;;5027731;28;20613;-82
2021/07/23 09:58:37;;;;;;;4.90;4.50;;;36.00;84.30;;;;;;5094398;28;20212;-82
2021/07/23 10:01:08;;;;;;;5.72;4.78;;;35.50;84.90;;;;;;5075777;28;20157;-83
2021/07/23 10:03:36;;;;;;;5.95;5.40;;;34.30;85.40;;;;;;5090817;28;20181;-82
2021/07/23 10:06:02;;;;;;;6.60;5.15;;;31.40;90.00;;;;;;5070613;28;20182;-84
2021/07/23 10:08:33;;;;;;;7.15;4.90;;;31.20;91.30;;;;;;5056063;28;20261;-85
2021/07/23 10:11:01;;;;;;;9.43;5.35;;;32.10;90.90;;;;;;5073911;28;20178;-85
2021/07/23 10:13:29;;;;;;;5.55;4.72;;;32.90;90.60;;;;;;5080025;28;20173;-85
2021/07/23 10:15:55;;;;;;;6.50;4.53;;;35.80;87.70;;;;;;5091901;28;20170;-84
2021/07/23 10:18:25;;;;;;;6.53;5.30;;;36.20;85.60;;;;;;5093204;28;20260;-83
2021/07/23 10:20:53;;;;;;;16.67;5.60;;;34.10;86.80;;;;;;5076355;28;20150;-85
2021/07/23 10:23:19;;;;;;;8.98;5.05;;;35.30;86.10;;;;;;5093617;28;20210;-82
2021/07/23 10:25:53;;;;;;;11.40;4.07;;;35.30;85.50;;;;;;5075967;28;20158;-86
2021/07/23 10:28:40;;;;;;;5.25;3.70;;;36.80;85.90;;;;;;5074863;28;20173;-86
2021/07/23 10:31:18;;;;;;;27.20;5.60;;;39.50;81.10;;;;;;5075596;28;20673;-83
2021/07/23 10:33:54;;;;;;;8.30;5.55;;;40.00;77.70;;;;;;5092916;28;20177;-84
2021/07/23 10:36:26;;;;;;;6.40;5.50;;;37.60;78.20;;;;;;5094087;28;20149;-83
2021/07/23 10:39:11;;;;;;;5.18;4.78;;;37.10;80.80;;;;;;5056906;28;20174;-84
2021/07/23 10:41:42;;;;;;;4.43;4.05;;;37.10;80.00;;;;;;5073474;28;20169;-85
2021/07/23 10:44:12;;;;;;;9.57;4.20;;;36.70;81.20;;;;;;5056296;28;20170;-84
2021/07/23 10:46:47;;;;;;;6.50;3.92;;;37.40;80.20;;;;;;5073708;28;20177;-83
2021/07/23 10:49:24;;;;;;;5.28;4.82;;;39.40;79.20;;;;;;5074177;28;20176;-85
2021/07/23 10:51:52;;;;;;;9.23;5.28;;;38.60;77.80;;;;;;5073353;28;20190;-84
2021/07/23 10:54:19;;;;;;;8.88;4.55;;;39.40;75.10;;;;;;5050134;28;20185;-84
2021/07/23 10:56:58;;;;;;;6.20;5.55;;;37.30;77.20;;;;;;5074998;28;20165;-83
2021/07/23 10:59:41;;;;;;;10.98;4.60;;;35.80;80.20;;;;;;5091616;28;20230;-86
2021/07/23 11:02:28;;;;;;;4.95;4.57;;;36.20;81.90;;;;;;5075814;28;20643;-85
2021/07/23 11:05:04;;;;;;;6.30;4.90;;;36.50;81.40;;;;;;5073090;28;20162;-84
2021/07/23 11:07:30;;;;;;;4.97;4.32;;;36.20;81.70;;;;;;5060387;28;20169;-84
2021/07/23 11:09:56;;;;;;;4.95;4.55;;;36.60;80.00;;;;;;5074039;28;20177;-84
2021/07/23 11:12:25;;;;;;;9.18;5.10;;;36.20;81.60;;;;;;5054840;28;20197;-83
2021/07/23 11:14:52;;;;;;;5.30;3.60;;;39.00;78.20;;;;;;5088802;28;20173;-85
2021/07/23 11:17:17;;;;;;;5.25;4.78;;;38.60;79.30;;;;;;5055233;28;20158;-84
2021/07/23 11:20:01;;;;;;;6.45;4.88;;;36.80;77.90;;;;;;5074101;28;20511;-84
2021/07/23 11:22:31;;;;;;;5.07;3.90;;;36.90;79.00;;;;;;5059712;28;20178;-85
2021/07/23 11:25:08;;;;;;;4.95;4.50;;;39.30;75.80;;;;;;5075084;28;20165;-83
2021/07/23 11:27:38;;;;;;;7.18;4.60;;;36.90;76.90;;;;;;5075313;28;20224;-82
2021/07/23 11:30:18;;;;;;;5.30;4.90;;;35.50;80.20;;;;;;5074963;28;20146;-83
2021/07/23 11:32:48;;;;;;;4.38;4.07;;;35.30;78.90;;;;;;5061219;28;20209;-94
2021/07/23 11:35:14;;;;;;;4.50;3.95;;;37.00;79.70;;;;;;5068437;28;20643;-79
2021/07/23 11:37:40;;;;;;;8.73;4.07;;;37.20;78.30;;;;;;5076305;28;20170;-83
2021/07/23 11:40:07;;;;;;;4.20;3.72;;;37.20;77.20;;;;;;5025538;28;20205;-81
2021/07/23 11:42:38;;;;;;;4.50;4.10;;;36.50;79.30;;;;;;5087626;28;20189;-81
2021/07/23 11:45:06;;;;;;;7.07;4.57;;;36.10;80.80;;;;;;5075257;28;20170;-80
2021/07/23 11:47:35;;;;;;;6.70;4.50;;;35.40;78.60;;;;;;5058628;28;20567;-81
2021/07/23 11:50:14;;;;;;;5.10;4.70;;;34.70;79.50;;;;;;5058544;28;20181;-80
2021/07/23 11:52:41;;;;;;;9.95;4.55;;;35.10;79.10;;;;;;5076993;28;20186;-80
2021/07/23 11:55:08;;;;;;;4.43;3.78;;;34.60;82.20;;;;;;5076396;28;20199;-79
2021/07/23 11:57:42;;;;;;;5.95;4.30;;;35.80;81.40;;;;;;5041342;28;20272;-79
2021/07/23 12:00:19;;;;;;;5.40;3.53;;;36.40;80.10;;;;;;5076296;28;20154;-80
2021/07/23 12:02:47;;;;;;;4.60;4.30;;;36.80;79.00;;;;;;5078259;28;20620;-78
2021/07/23 12:05:15;;;;;;;5.57;5.07;;;36.30;77.30;;;;;;5041852;28;20308;-78
2021/07/23 12:07:42;;;;;;;5.68;4.80;;;35.60;77.70;;;;;;5058486;28;20541;-81
2021/07/23 12:10:17;;;;;;;4.10;3.47;;;35.80;78.20;;;;;;5076150;28;20170;-80
2021/07/23 12:12:43;;;;;;;15.00;4.22;;;35.40;79.60;;;;;;5076037;28;20231;-80
2021/07/23 12:15:10;;;;;;;11.50;4.78;;;34.80;82.20;;;;;;5081068;28;20655;-80
2021/07/23 12:17:40;;;;;;;4.90;3.80;;;34.30;80.40;;;;;;5066718;28;20173;-80
2021/07/23 12:20:07;;;;;;;7.70;3.63;;;34.10;83.30;;;;;;5064803;28;20170;-79
2021/07/23 12:22:33;;;;;;;4.22;3.83;;;33.90;81.10;;;;;;5057823;28;20669;-81
2021/07/23 12:25:19;;;;;;;5.28;3.60;;;34.70;77.30;;;;;;5088605;28;20172;-79
2021/07/23 12:27:45;;;;;;;4.43;3.70;;;34.20;79.70;;;;;;5075661;28;20166;-79
2021/07/23 12:30:12;;;;;;;4.00;3.33;;;32.50;85.10;;;;;;5076453;28;20181;-82
2021/07/23 12:32:38;;;;;;;5.80;3.50;;;30.60;89.00;;;;;;5057555;28;20549;-80
2021/07/23 12:35:05;;;;;;;7.97;4.82;;;29.70;90.70;;;;;;5061570;28;20268;-82
2021/07/23 12:37:30;;;;;;;5.82;3.75;;;29.30;90.10;;;;;;5095561;28;20197;-82
2021/07/23 12:40:05;;;;;;;7.68;3.97;;;29.50;89.80;;;;;;5072816;28;20202;-80
2021/07/23 12:42:31;;;;;;;6.00;4.70;;;29.00;90.50;;;;;;5057583;28;20208;-79
2021/07/23 12:44:57;;;;;;;5.07;3.78;;;27.90;92.10;;;;;;5060555;28;20588;-79